createdAt,value
2023-03-28T00:01:14.066Z,15.60
2023-03-28T00:03:41.124Z,15.57
2023-03-28T00:06:16.269Z,15.58
2023-03-28T00:08:42.863Z,15.48
2023-03-28T00:11:21.683Z,15.59
2023-03-28T00:13:53.595Z,15.52
2023-03-28T00:16:20.253Z,15.56
2023-03-28T00:18:46.847Z,15.58
2023-03-28T00:21:24.869Z,15.57
2023-03-28T00:23:53.456Z,15.56
2023-03-28T00:26:22.152Z,15.57
2023-03-28T00:28:48.728Z,15.48
2023-03-28T00:31:15.754Z,15.55
2023-03-28T00:33:42.393Z,15.56
2023-03-28T00:36:10.425Z,15.53
2023-03-28T00:38:38.787Z,15.53
2023-03-28T00:41:05.946Z,15.52
2023-03-28T00:43:43.287Z,15.54
2023-03-28T00:46:27.128Z,15.52
2023-03-28T00:49:06.963Z,15.50
2023-03-28T00:51:38.288Z,15.51
2023-03-28T00:54:08.491Z,15.51
2023-03-28T00:56:37.938Z,15.50
2023-03-28T00:59:12.132Z,15.49
2023-03-28T01:01:38.788Z,15.49
2023-03-28T01:04:06.890Z,15.49
2023-03-28T01:06:41.672Z,15.47
2023-03-28T01:09:09.240Z,15.47
2023-03-28T01:11:37.989Z,15.48
2023-03-28T01:14:06.973Z,15.44
2023-03-28T01:16:33.846Z,15.46
2023-03-28T01:19:02.157Z,15.44
2023-03-28T01:21:48.891Z,15.43
2023-03-28T01:24:33.560Z,15.44
2023-03-28T01:27:17.082Z,15.34
2023-03-28T01:30:11.718Z,15.41
2023-03-28T01:35:36.585Z,15.40
2023-03-28T01:38:18.649Z,15.40
2023-03-28T01:41:17.789Z,15.39
2023-03-28T01:44:03.050Z,15.38
2023-03-28T01:46:46.024Z,15.38
2023-03-28T01:49:41.979Z,15.37
2023-03-28T01:52:12.714Z,15.36
2023-03-28T01:54:54.435Z,15.36
2023-03-28T01:57:32.678Z,15.34
2023-03-28T02:00:12.826Z,15.34
2023-03-28T02:02:49.321Z,15.33
2023-03-28T02:05:19.380Z,15.29
2023-03-28T02:07:48.974Z,15.33
2023-03-28T02:10:19.513Z,15.32
2023-03-28T02:12:51.335Z,15.32
2023-03-28T02:15:21.790Z,15.31
2023-03-28T02:17:53.529Z,15.30
2023-03-28T02:20:25.531Z,15.29
2023-03-28T02:23:05.472Z,15.27
2023-03-28T02:25:32.431Z,15.27
2023-03-28T02:28:02.863Z,15.27
2023-03-28T02:30:30.142Z,15.26
2023-03-28T02:33:06.221Z,15.25
2023-03-28T02:36:00.607Z,15.25
2023-03-28T02:38:39.018Z,15.24
2023-03-28T02:41:26.342Z,15.24
2023-03-28T02:44:10.264Z,15.23
2023-03-28T02:46:54.329Z,15.22
2023-03-28T02:49:43.705Z,15.22
2023-03-28T02:52:23.719Z,15.21
2023-03-28T02:54:58.018Z,15.20
2023-03-28T02:57:38.871Z,15.19
2023-03-28T03:00:13.334Z,15.19
2023-03-28T03:02:43.421Z,15.18
2023-03-28T03:05:10.536Z,15.16
2023-03-28T03:07:38.030Z,15.15
2023-03-28T03:10:07.367Z,15.15
2023-03-28T03:12:34.655Z,15.15
2023-03-28T03:15:01.825Z,15.14
2023-03-28T03:17:28.874Z,15.12
2023-03-28T03:19:56.154Z,15.13
2023-03-28T03:22:23.682Z,15.11
2023-03-28T03:24:53.252Z,15.10
2023-03-28T03:27:20.915Z,15.11
2023-03-28T03:29:48.487Z,15.10
2023-03-28T03:32:15.348Z,15.07
2023-03-28T03:34:41.967Z,15.07
2023-03-28T03:37:11.776Z,15.07
2023-03-28T03:39:38.313Z,15.06
2023-03-28T03:42:05.012Z,15.05
2023-03-28T03:44:31.781Z,15.05
2023-03-28T03:46:58.551Z,15.05
2023-03-28T03:49:25.260Z,15.04
2023-03-28T03:51:52.133Z,15.03
2023-03-28T03:54:18.955Z,15.03
2023-03-28T03:56:46.111Z,15.01
2023-03-28T03:59:12.875Z,15.00
2023-03-28T04:01:40.028Z,14.99
2023-03-28T04:04:07.805Z,14.98
2023-03-28T04:06:34.444Z,14.97
2023-03-28T04:09:01.008Z,14.95
2023-03-28T04:11:27.554Z,14.96
2023-03-28T04:13:54.093Z,14.95
2023-03-28T04:16:20.876Z,14.95
2023-03-28T04:18:50.904Z,14.94
2023-03-28T04:21:20.852Z,14.93
2023-03-28T04:23:48.410Z,14.92
2023-03-28T04:26:15.483Z,14.91
2023-03-28T04:28:43.564Z,14.91
2023-03-28T04:31:12.134Z,14.90
2023-03-28T04:33:40.160Z,14.90
2023-03-28T04:36:08.027Z,14.88
2023-03-28T04:38:38.092Z,14.87
2023-03-28T04:41:05.479Z,14.88
2023-03-28T04:43:32.406Z,14.86
2023-03-28T04:45:59.716Z,14.85
2023-03-28T04:48:27.608Z,14.84
2023-03-28T04:50:55.335Z,14.83
2023-03-28T04:53:22.493Z,14.82
2023-03-28T04:55:50.264Z,14.82
2023-03-28T04:58:18.449Z,14.81
2023-03-28T05:00:45.976Z,14.81
2023-03-28T05:03:21.022Z,14.81
2023-03-28T05:05:49.348Z,14.79
2023-03-28T05:08:17.812Z,14.79
2023-03-28T05:10:45.547Z,14.77
2023-03-28T05:13:13.131Z,14.78
2023-03-28T05:15:39.884Z,14.76
2023-03-28T05:18:06.550Z,14.76
2023-03-28T05:20:33.626Z,14.76
2023-03-28T05:23:01.355Z,14.74
2023-03-28T05:25:28.372Z,14.77
2023-03-28T05:27:55.094Z,14.76
2023-03-28T05:30:21.996Z,14.76
2023-03-28T05:32:48.985Z,14.74
2023-03-28T05:35:16.345Z,14.70
2023-03-28T05:37:46.257Z,14.70
2023-03-28T05:40:15.495Z,14.69
2023-03-28T05:42:42.138Z,14.68
2023-03-28T05:45:11.477Z,14.64
2023-03-28T05:47:38.696Z,14.64
2023-03-28T05:50:06.509Z,14.64
2023-03-28T05:52:33.150Z,14.63
2023-03-28T05:54:59.898Z,14.65
2023-03-28T05:57:26.465Z,14.62
2023-03-28T05:59:53.809Z,14.64
2023-03-28T06:02:21.919Z,14.65
2023-03-28T06:04:48.697Z,14.68
2023-03-28T06:07:16.643Z,14.70
2023-03-28T06:09:43.271Z,14.73
2023-03-28T06:12:09.952Z,14.76
2023-03-28T06:14:36.605Z,14.79
2023-03-28T06:17:03.361Z,14.81
2023-03-28T06:19:30.367Z,14.83
2023-03-28T06:21:57.044Z,14.84
2023-03-28T06:24:23.631Z,14.87
2023-03-28T06:26:50.428Z,14.89
2023-03-28T06:29:17.094Z,14.91
2023-03-28T06:31:43.707Z,14.95
2023-03-28T06:34:10.324Z,15.00
2023-03-28T06:36:36.934Z,15.03
2023-03-28T06:39:04.039Z,15.07
2023-03-28T06:41:30.699Z,15.11
2023-03-28T06:43:57.485Z,15.14
2023-03-28T06:46:24.143Z,15.17
2023-03-28T06:48:50.720Z,15.20
2023-03-28T06:51:17.292Z,15.23
2023-03-28T06:53:43.840Z,15.29
2023-03-28T06:56:11.414Z,15.36
2023-03-28T06:58:39.211Z,15.42
2023-03-28T07:01:06.656Z,15.49
2023-03-28T07:03:33.335Z,15.55
2023-03-28T07:06:04.093Z,15.57
2023-03-28T07:08:30.792Z,15.60
2023-03-28T07:10:57.545Z,15.61
2023-03-28T07:13:24.298Z,15.63
2023-03-28T07:16:10.628Z,15.61
2023-03-28T07:18:37.307Z,15.59
2023-03-28T07:21:09.494Z,15.59
2023-03-28T07:23:36.881Z,15.57
2023-03-28T07:26:03.485Z,15.60
2023-03-28T07:28:30.241Z,15.63
2023-03-28T07:30:56.752Z,15.67
2023-03-28T07:33:28.997Z,15.75
2023-03-28T07:36:01.289Z,15.84
2023-03-28T07:38:27.924Z,15.94
2023-03-28T07:40:54.506Z,16.05
2023-03-28T07:43:21.137Z,16.16
2023-03-28T07:45:47.762Z,16.25
2023-03-28T07:48:14.394Z,16.30
2023-03-28T07:50:42.822Z,16.35
2023-03-28T07:53:09.440Z,16.40
2023-03-28T07:58:08.924Z,16.52
2023-03-28T08:00:35.521Z,16.57
2023-03-28T08:03:02.196Z,16.58
2023-03-28T08:05:28.932Z,16.58
2023-03-28T08:07:55.521Z,16.59
2023-03-28T08:10:22.121Z,16.60
2023-03-28T08:12:48.664Z,16.62
2023-03-28T08:15:15.433Z,16.63
2023-03-28T08:17:42.012Z,16.64
2023-03-28T08:20:10.668Z,16.66
2023-03-28T08:22:37.681Z,16.68
2023-03-28T08:25:05.338Z,16.70
2023-03-28T08:27:32.125Z,16.72
2023-03-28T08:29:58.704Z,16.69
2023-03-28T08:32:25.622Z,16.64
2023-03-28T08:34:52.885Z,16.62
2023-03-28T08:37:21.857Z,16.62
2023-03-28T08:39:48.628Z,16.62
2023-03-28T08:42:33.957Z,16.58
2023-03-28T08:45:03.434Z,16.58
2023-03-28T08:47:36.668Z,16.64
2023-03-28T08:50:15.050Z,16.70
2023-03-28T08:52:43.430Z,16.72
2023-03-28T08:55:31.915Z,16.77
2023-03-28T08:57:59.349Z,16.80
2023-03-28T09:00:37.175Z,16.84
2023-03-28T09:03:12.593Z,16.85
2023-03-28T09:05:50.073Z,16.87
2023-03-28T09:08:52.367Z,16.94
2023-03-28T09:11:49.642Z,16.96
2023-03-28T09:14:44.064Z,17.01
2023-03-28T09:17:25.872Z,17.07
2023-03-28T09:20:14.057Z,17.14
2023-03-28T09:23:02.330Z,17.19
2023-03-28T09:25:53.584Z,17.23
2023-03-28T09:28:57.382Z,17.22
2023-03-28T09:31:31.129Z,17.22
2023-03-28T09:34:00.232Z,17.19
2023-03-28T09:36:41.446Z,17.21
2023-03-28T09:39:21.959Z,17.24
2023-03-28T09:42:13.865Z,17.29
2023-03-28T09:44:54.096Z,17.31
2023-03-28T09:47:21.369Z,17.29
2023-03-28T09:49:48.582Z,17.24
2023-03-28T09:52:21.356Z,17.20
2023-03-28T09:54:48.599Z,17.14
2023-03-28T09:57:15.363Z,17.07
2023-03-28T09:59:42.192Z,17.01
2023-03-28T10:02:30.473Z,16.94
2023-03-28T10:04:57.192Z,16.88
2023-03-28T10:07:31.039Z,16.84
2023-03-28T10:10:02.409Z,16.81
2023-03-28T10:12:37.943Z,16.78
2023-03-28T10:15:07.819Z,16.76
2023-03-28T10:17:37.382Z,16.72
2023-03-28T10:20:10.180Z,16.71
2023-03-28T10:22:40.078Z,16.70
2023-03-28T10:25:13.539Z,16.68
2023-03-28T10:27:40.859Z,16.67
2023-03-28T10:30:21.921Z,16.68
2023-03-28T10:33:16.215Z,16.67
2023-03-28T10:35:58.566Z,16.65
2023-03-28T10:38:31.842Z,16.63
2023-03-28T10:41:02.878Z,16.62
2023-03-28T10:43:36.297Z,16.61
2023-03-28T10:46:07.346Z,16.61
2023-03-28T10:48:36.851Z,16.60
2023-03-28T10:51:08.790Z,16.59
2023-03-28T10:53:56.904Z,16.59
2023-03-28T10:56:35.006Z,16.58
2023-03-28T10:59:04.548Z,16.57
2023-03-28T11:02:05.417Z,16.57
2023-03-28T11:05:08.998Z,16.57
2023-03-28T11:07:39.881Z,16.56
2023-03-28T11:10:26.894Z,16.56
2023-03-28T11:13:17.300Z,16.53
2023-03-28T11:15:59.243Z,16.54
2023-03-28T11:18:36.573Z,16.53
2023-03-28T11:21:52.265Z,16.54
2023-03-28T11:24:28.005Z,16.53
2023-03-28T11:27:28.652Z,16.53
2023-03-28T11:30:05.677Z,16.51
2023-03-28T11:32:41.637Z,16.53
2023-03-28T11:35:30.952Z,16.52
2023-03-28T11:38:12.570Z,16.53
2023-03-28T11:40:54.456Z,16.53
2023-03-28T11:43:37.225Z,16.52
2023-03-28T11:46:12.210Z,16.54
2023-03-28T11:48:59.912Z,16.55
2023-03-28T11:51:37.992Z,16.54
2023-03-28T11:54:14.777Z,16.54
2023-03-28T11:57:23.248Z,16.54
2023-03-28T11:59:52.801Z,16.55
2023-03-28T12:02:31.504Z,16.54
2023-03-28T12:05:10.355Z,16.52
2023-03-28T12:07:52.605Z,16.53
2023-03-28T12:10:26.412Z,16.53
2023-03-28T12:13:13.775Z,16.53
2023-03-28T12:15:56.070Z,16.52
2023-03-28T12:18:28.530Z,16.52
2023-03-28T12:21:00.695Z,16.52
2023-03-28T12:23:37.777Z,16.51
2023-03-28T12:26:14.436Z,16.51
2023-03-28T12:28:48.264Z,16.51
2023-03-28T12:31:26.541Z,16.52
2023-03-28T12:34:12.171Z,16.51
2023-03-28T12:37:04.129Z,16.52
2023-03-28T12:39:51.156Z,16.51
2023-03-28T12:42:21.419Z,16.51
2023-03-28T12:44:53.710Z,16.51
2023-03-28T12:47:45.293Z,16.50
2023-03-28T12:50:21.943Z,16.51
2023-03-28T12:52:49.894Z,16.51
2023-03-28T12:55:25.659Z,16.51
2023-03-28T12:57:54.634Z,16.49
2023-03-28T13:01:00.455Z,16.50
2023-03-28T13:03:36.143Z,16.50
2023-03-28T13:06:20.304Z,16.49
2023-03-28T13:09:05.109Z,16.48
2023-03-28T13:11:52.740Z,16.48
2023-03-28T13:14:39.386Z,16.47
2023-03-28T13:17:23.975Z,16.46
2023-03-28T13:19:53.804Z,16.45
2023-03-28T13:22:29.806Z,16.46
2023-03-28T13:25:34.941Z,16.45
2023-03-28T13:28:51.671Z,16.44
2023-03-28T13:31:18.279Z,16.44
2023-03-28T13:33:53.301Z,16.44
2023-03-28T13:36:22.986Z,16.45
2023-03-28T13:38:50.933Z,16.45
2023-03-28T13:41:50.340Z,16.46
2023-03-28T13:44:24.581Z,16.46
2023-03-28T13:46:53.528Z,16.46
2023-03-28T13:49:29.311Z,16.45
2023-03-28T13:52:04.853Z,16.44
2023-03-28T13:54:31.923Z,16.44
2023-03-28T13:57:08.287Z,16.46
2023-03-28T13:59:38.354Z,16.45
2023-03-28T14:02:30.854Z,16.46
2023-03-28T14:05:11.188Z,16.47
2023-03-28T14:07:37.726Z,16.46
2023-03-28T14:10:28.738Z,16.47
2023-03-28T14:13:02.221Z,16.47
2023-03-28T14:15:31.523Z,16.48
2023-03-28T14:18:00.085Z,16.48
2023-03-28T14:20:28.220Z,16.47
2023-03-28T14:23:00.354Z,16.48
2023-03-28T14:25:29.116Z,16.48
2023-03-28T14:27:57.358Z,16.47
2023-03-28T14:30:37.167Z,16.48
2023-03-28T14:33:14.808Z,16.48
2023-03-28T14:35:42.435Z,16.48
2023-03-28T14:38:28.641Z,16.48
2023-03-28T14:41:04.845Z,16.47
2023-03-28T14:43:31.835Z,16.46
2023-03-28T14:46:04.627Z,16.47
2023-03-28T14:48:32.224Z,16.47
2023-03-28T14:51:03.048Z,16.47
2023-03-28T14:53:35.608Z,16.46
2023-03-28T14:56:11.103Z,16.46
2023-03-28T14:58:42.305Z,16.46
2023-03-28T15:01:14.826Z,16.47
2023-03-28T15:03:45.944Z,16.46
2023-03-28T15:06:19.093Z,16.47
2023-03-28T15:08:45.890Z,16.46
2023-03-28T15:11:29.174Z,16.46
2023-03-28T15:14:27.955Z,16.46
2023-03-28T15:16:55.971Z,16.45
2023-03-28T15:19:27.214Z,16.45
2023-03-28T15:21:58.079Z,16.44
2023-03-28T15:24:28.198Z,16.44
2023-03-28T15:26:59.422Z,16.45
2023-03-28T15:29:27.547Z,16.44
2023-03-28T15:32:02.747Z,16.45
2023-03-28T15:34:29.816Z,16.45
2023-03-28T15:37:04.186Z,16.46
2023-03-28T15:39:33.458Z,16.45
2023-03-28T15:42:00.010Z,16.45
2023-03-28T15:44:31.288Z,16.45
2023-03-28T15:47:05.489Z,16.44
2023-03-28T15:49:36.976Z,16.45
2023-03-28T15:52:09.411Z,16.43
2023-03-28T15:54:42.257Z,16.43
2023-03-28T15:57:14.707Z,16.43
2023-03-28T15:59:46.386Z,16.42
2023-03-28T16:02:18.818Z,16.42
2023-03-28T16:05:06.918Z,16.43
2023-03-28T16:07:43.536Z,16.43
2023-03-28T16:10:11.317Z,16.42
2023-03-28T16:12:37.884Z,16.42
2023-03-28T16:15:05.457Z,16.42
2023-03-28T16:17:32.465Z,16.42
2023-03-28T16:19:59.744Z,16.41
2023-03-28T16:22:26.674Z,16.40
2023-03-28T16:24:54.384Z,16.40
2023-03-28T16:27:22.116Z,16.39
2023-03-28T16:29:48.848Z,16.39
2023-03-28T16:32:16.408Z,16.38
2023-03-28T16:34:43.944Z,16.37
2023-03-28T16:37:11.502Z,16.35
2023-03-28T16:39:38.727Z,16.36
2023-03-28T16:42:06.221Z,16.36
2023-03-28T16:44:33.038Z,16.34
2023-03-28T16:47:00.781Z,16.34
2023-03-28T16:49:27.360Z,16.33
2023-03-28T16:51:55.708Z,16.33
2023-03-28T16:54:23.550Z,16.32
2023-03-28T16:56:50.952Z,16.32
2023-03-28T16:59:17.565Z,16.31
2023-03-28T17:01:46.345Z,16.31
2023-03-28T17:04:13.162Z,16.32
2023-03-28T17:06:39.784Z,16.31
2023-03-28T17:09:06.776Z,16.30
2023-03-28T17:11:33.643Z,16.29
2023-03-28T17:14:00.697Z,16.32
2023-03-28T17:16:27.458Z,16.32
2023-03-28T17:18:54.130Z,16.30
2023-03-28T17:21:21.418Z,16.30
2023-03-28T17:23:49.296Z,16.29
2023-03-28T17:26:17.212Z,16.29
2023-03-28T17:28:44.316Z,16.29
2023-03-28T17:31:13.983Z,16.30
2023-03-28T17:33:40.997Z,16.31
2023-03-28T17:36:21.258Z,16.30
2023-03-28T17:38:50.221Z,16.29
2023-03-28T17:41:17.486Z,16.30
2023-03-28T17:43:44.527Z,16.29
2023-03-28T17:46:12.906Z,16.30
2023-03-28T17:48:41.880Z,16.30
2023-03-28T17:51:10.243Z,16.29
2023-03-28T17:53:38.843Z,16.30
2023-03-28T17:56:07.155Z,16.29
2023-03-28T17:58:34.498Z,16.28
2023-03-28T18:01:01.490Z,16.28
2023-03-28T18:03:28.592Z,16.26
2023-03-28T18:06:00.194Z,16.27
2023-03-28T18:08:28.515Z,16.26
2023-03-28T18:11:00.287Z,16.25
2023-03-28T18:13:26.875Z,16.25
2023-03-28T18:15:53.613Z,16.24
2023-03-28T18:18:20.297Z,16.25
2023-03-28T18:20:46.990Z,16.24
2023-03-28T18:23:13.991Z,16.25
2023-03-28T18:25:41.235Z,16.24
2023-03-28T18:28:07.863Z,16.23
2023-03-28T18:30:34.593Z,16.24
2023-03-28T18:33:01.814Z,16.23
2023-03-28T18:35:28.567Z,16.23
2023-03-28T18:37:57.496Z,16.22
2023-03-28T18:40:24.276Z,16.23
2023-03-28T18:42:50.965Z,16.22
2023-03-28T18:45:17.508Z,16.22
2023-03-28T18:47:44.106Z,16.21
2023-03-28T18:50:11.064Z,16.21
2023-03-28T18:52:37.734Z,16.21
2023-03-28T18:55:05.354Z,16.20
2023-03-28T18:57:31.934Z,16.19
2023-03-28T18:59:58.602Z,16.19
2023-03-28T19:02:26.626Z,16.19
2023-03-28T19:04:53.275Z,16.16
2023-03-28T19:07:21.010Z,16.18
2023-03-28T19:09:47.623Z,16.17
2023-03-28T19:12:14.241Z,16.19
2023-03-28T19:14:40.860Z,16.18
2023-03-28T19:17:07.505Z,16.18
2023-03-28T19:19:37.381Z,16.17
2023-03-28T19:22:06.485Z,16.16
2023-03-28T19:24:33.647Z,16.15
2023-03-28T19:27:02.017Z,16.15
2023-03-28T19:29:32.041Z,16.15
2023-03-28T19:31:58.668Z,16.16
2023-03-28T19:34:25.388Z,16.15
2023-03-28T19:36:51.957Z,16.14
2023-03-28T19:39:18.619Z,16.14
2023-03-28T19:41:45.189Z,16.14
2023-03-28T19:44:11.833Z,16.13
2023-03-28T19:46:38.968Z,16.13
2023-03-28T19:49:06.900Z,16.14
2023-03-28T19:51:34.330Z,16.13
2023-03-28T19:54:01.086Z,16.13
2023-03-28T19:56:28.099Z,16.15
2023-03-28T19:58:54.724Z,16.13
2023-03-28T20:01:21.388Z,16.12
2023-03-28T20:03:52.445Z,16.11
2023-03-28T20:06:21.216Z,16.12
2023-03-28T20:08:47.986Z,16.13
2023-03-28T20:11:15.228Z,16.11
2023-03-28T20:13:42.093Z,16.11
2023-03-28T20:16:10.122Z,16.11
2023-03-28T20:18:37.559Z,16.10
2023-03-28T20:21:10.268Z,16.11
2023-03-28T20:23:37.250Z,16.08
2023-03-28T20:26:18.786Z,16.10
2023-03-28T20:28:49.373Z,16.09
2023-03-28T20:31:17.706Z,16.08
2023-03-28T20:33:45.383Z,16.09
2023-03-28T20:36:12.204Z,16.08
2023-03-28T20:38:39.404Z,16.08
2023-03-28T20:41:13.589Z,16.07
2023-03-28T20:43:46.840Z,16.07
2023-03-28T20:46:18.525Z,16.08
2023-03-28T20:48:46.550Z,16.08
2023-03-28T20:51:16.961Z,16.07
2023-03-28T20:53:46.130Z,16.07
2023-03-28T20:56:13.614Z,16.06
2023-03-28T20:58:40.678Z,16.06
2023-03-28T21:01:09.289Z,16.07
2023-03-28T21:03:52.051Z,16.05
2023-03-28T21:06:21.700Z,16.06
2023-03-28T21:08:50.915Z,16.04
2023-03-28T21:11:19.617Z,16.03
2023-03-28T21:13:46.164Z,15.99
2023-03-28T21:16:17.202Z,15.98
2023-03-28T21:18:44.539Z,15.94
2023-03-28T21:21:13.253Z,15.92
2023-03-28T21:23:41.024Z,15.89
2023-03-28T21:26:11.145Z,15.87
2023-03-28T21:28:38.031Z,15.86
2023-03-28T21:31:10.329Z,15.83
2023-03-28T21:33:38.267Z,15.83
2023-03-28T21:36:08.489Z,15.81
2023-03-28T21:38:35.463Z,15.81
2023-03-28T21:41:02.862Z,15.81
2023-03-28T21:43:29.608Z,15.82
2023-03-28T21:45:56.289Z,15.82
2023-03-28T21:48:23.045Z,15.82
2023-03-28T21:50:53.680Z,15.82
2023-03-28T21:53:21.510Z,15.80
2023-03-28T21:55:48.468Z,15.80
2023-03-28T21:58:15.027Z,15.79
2023-03-28T22:00:41.934Z,15.78
2023-03-28T22:03:08.672Z,15.77
2023-03-28T22:05:42.046Z,15.75
2023-03-28T22:08:12.091Z,15.74
2023-03-28T22:10:45.736Z,15.72
2023-03-28T22:13:13.942Z,15.72
2023-03-28T22:15:41.176Z,15.72
2023-03-28T22:18:09.296Z,15.71
2023-03-28T22:20:37.690Z,15.70
2023-03-28T22:23:05.151Z,15.68
2023-03-28T22:25:34.839Z,15.69
2023-03-28T22:28:07.637Z,15.67
2023-03-28T22:30:34.716Z,15.66
2023-03-28T22:33:02.533Z,15.64
2023-03-28T22:35:30.171Z,15.65
2023-03-28T22:37:57.165Z,15.64
2023-03-28T22:40:23.800Z,15.63
2023-03-28T22:42:50.360Z,15.62
2023-03-28T22:45:17.036Z,15.60
2023-03-28T22:47:43.600Z,15.60
2023-03-28T22:50:14.665Z,15.60
2023-03-28T22:52:42.112Z,15.58
2023-03-28T22:55:13.468Z,15.57
2023-03-28T22:57:43.787Z,15.56
2023-03-28T23:00:12.322Z,15.56
2023-03-28T23:02:39.225Z,15.55
2023-03-28T23:05:06.924Z,15.54
2023-03-28T23:07:35.946Z,15.53
2023-03-28T23:10:05.420Z,15.53
2023-03-28T23:12:31.996Z,15.52
2023-03-28T23:14:58.544Z,15.49
2023-03-28T23:17:26.331Z,15.50
2023-03-28T23:19:54.310Z,15.49
2023-03-28T23:22:21.667Z,15.49
2023-03-28T23:24:50.713Z,15.49
2023-03-28T23:27:18.915Z,15.49
2023-03-28T23:29:46.044Z,15.48
2023-03-28T23:32:12.670Z,15.48
2023-03-28T23:34:40.263Z,15.47
2023-03-28T23:37:07.164Z,15.47
2023-03-28T23:39:33.741Z,15.47
2023-03-28T23:42:00.937Z,15.47
2023-03-28T23:44:27.923Z,15.48
2023-03-28T23:46:56.322Z,15.47
2023-03-28T23:49:23.432Z,15.48
2023-03-28T23:51:50.776Z,15.48
2023-03-28T23:54:18.596Z,15.47
2023-03-28T23:56:46.046Z,15.47
2023-03-28T23:59:12.812Z,15.46
